Time;durP1;ratioP1;P1;durP2;ratioP2;P2;SDS_P1;SDS_P2;PMS_P1;PMS_P2;Temp;Humidity;BMP_temperature;BMP_pressure;BME280_temperature;BME280_humidity;BME280_pressure;Samples;Min_cycle;Max_cycle;Signal;HPM_P1;HPM_P2
2023/10/27 00:01:35;;;;;;;1.47;1.17;;;;;;;12.38;nan;97422.03;4902748;29;20210;-78
2023/10/27 00:04:00;;;;;;;1.10;1.00;;;;;;;12.33;nan;97422.50;4905139;29;20193;-79
2023/10/27 00:06:27;;;;;;;4.07;1.30;;;;;;;12.29;nan;97423.81;4906311;29;20728;-80
2023/10/27 00:08:53;;;;;;;2.58;1.17;;;;;;;12.26;nan;97425.94;4906965;29;20695;-78
2023/10/27 00:11:18;;;;;;;2.23;2.03;;;;;;;12.25;nan;97422.50;4908390;29;20325;-79
2023/10/27 00:13:43;;;;;;;7.80;1.77;;;;;;;12.26;nan;97421.53;4910400;29;20219;-79
2023/10/27 00:16:10;;;;;;;1.83;1.30;;;;;;;12.27;nan;97417.06;4906063;29;21791;-79
2023/10/27 00:18:36;;;;;;;3.90;1.45;;;;;;;12.25;nan;97417.22;4905672;29;20211;-79
2023/10/27 00:21:02;;;;;;;3.72;1.15;;;;;;;12.24;nan;97417.41;4904590;29;20207;-80
2023/10/27 00:23:28;;;;;;;2.03;1.20;;;;;;;12.24;nan;97420.03;4904950;29;20230;-80
2023/10/27 00:25:53;;;;;;;2.50;1.53;;;;;;;12.19;nan;97417.88;4906831;29;20205;-80
2023/10/27 00:28:18;;;;;;;5.30;1.37;;;;;;;12.16;nan;97412.94;4904146;29;20345;-79
2023/10/27 00:30:44;;;;;;;1.37;1.20;;;;;;;12.12;nan;97411.59;4890523;29;20218;-80
2023/10/27 00:33:09;;;;;;;3.33;1.17;;;;;;;12.07;nan;97409.47;4873987;29;20285;-80
2023/10/27 00:35:35;;;;;;;3.20;1.63;;;;;;;12.06;nan;97402.53;4905675;29;20228;-79
2023/10/27 00:38:00;;;;;;;2.10;1.53;;;;;;;12.08;nan;97416.38;4909201;29;20714;-79
2023/10/27 00:40:26;;;;;;;4.53;1.10;;;;;;;12.09;nan;97410.13;4908381;29;20231;-79
2023/10/27 00:42:51;;;;;;;1.23;1.10;;;;;;;12.13;nan;97408.81;4901604;29;21270;-79
2023/10/27 00:45:17;;;;;;;2.47;1.00;;;;;;;12.15;nan;97420.03;4907774;29;20210;-79
2023/10/27 00:47:43;;;;;;;2.40;1.30;;;;;;;12.18;nan;97416.25;4903969;29;20616;-79
2023/10/27 00:50:09;;;;;;;5.13;1.63;;;;;;;12.17;nan;97407.50;4907212;29;20474;-79
2023/10/27 00:52:35;;;;;;;2.30;1.30;;;;;;;12.18;nan;97411.78;4888429;29;20214;-79
2023/10/27 00:55:02;;;;;;;1.48;1.25;;;;;;;12.17;nan;97404.88;4907754;29;20202;-79
2023/10/27 00:57:28;;;;;;;3.67;1.70;;;;;;;12.15;nan;97406.88;4906729;29;20229;-79
2023/10/27 00:59:54;;;;;;;1.17;1.08;;;;;;;12.13;nan;97408.81;4889810;29;20198;-80
2023/10/27 01:02:21;;;;;;;1.37;1.27;;;;;;;12.10;nan;97398.63;4888037;29;20222;-79
2023/10/27 01:04:47;;;;;;;3.40;1.20;;;;;;;12.08;nan;97395.31;4909104;29;20466;-79
2023/10/27 01:07:13;;;;;;;3.00;1.73;;;;;;;12.11;nan;97389.72;4887242;29;20195;-79
2023/10/27 01:09:38;;;;;;;2.00;1.20;;;;;;;12.15;nan;97392.84;4905226;29;20206;-79
2023/10/27 01:12:04;;;;;;;1.70;1.40;;;;;;;12.19;nan;97404.72;4904733;29;20278;-79
2023/10/27 01:14:30;;;;;;;2.90;1.67;;;;;;;12.21;nan;97399.31;4903975;29;20241;-79
2023/10/27 01:16:57;;;;;;;3.30;1.80;;;;;;;12.24;nan;97396.34;4887249;29;20206;-79
2023/10/27 01:19:23;;;;;;;3.78;2.15;;;;;;;12.23;nan;97387.59;4905509;29;20234;-80
2023/10/27 01:21:48;;;;;;;1.87;1.57;;;;;;;12.22;nan;97379.88;4906511;29;20202;-79
2023/10/27 01:24:14;;;;;;;2.20;1.53;;;;;;;12.15;nan;97371.81;4888987;29;20246;-79
2023/10/27 01:26:40;;;;;;;1.93;1.50;;;;;;;12.12;nan;97359.81;4907422;29;20195;-79
2023/10/27 01:29:05;;;;;;;2.13;1.40;;;;;;;12.10;nan;97364.41;4904444;29;20206;-79
2023/10/27 01:31:30;;;;;;;1.33;1.23;;;;;;;12.08;nan;97357.66;4887272;29;20245;-80
2023/10/27 01:33:56;;;;;;;2.97;1.50;;;;;;;12.06;nan;97349.09;4888460;29;20576;-79
2023/10/27 01:36:21;;;;;;;1.70;1.40;;;;;;;12.03;nan;97354.69;4888657;29;20450;-79
2023/10/27 01:38:46;;;;;;;2.33;1.50;;;;;;;12.01;nan;97351.41;4908586;29;20218;-79
2023/10/27 01:41:12;;;;;;;1.50;1.40;;;;;;;12.02;nan;97351.25;4892151;29;20229;-79
2023/10/27 01:43:37;;;;;;;2.90;1.70;;;;;;;12.05;nan;97350.91;4911617;29;20214;-79
2023/10/27 01:46:03;;;;;;;7.23;1.87;;;;;;;12.09;nan;97344.31;4906137;29;20226;-79
2023/10/27 01:48:28;;;;;;;2.13;1.83;;;;;;;12.12;nan;97349.28;4903562;29;20202;-79
2023/10/27 01:50:55;;;;;;;1.70;1.17;;;;;;;12.13;nan;97350.94;4887008;29;20246;-79
2023/10/27 01:53:20;;;;;;;2.70;1.52;;;;;;;12.13;nan;97344.84;4885931;29;20294;-79
2023/10/27 01:55:46;;;;;;;1.50;1.40;;;;;;;12.11;nan;97328.38;4887404;29;21009;-79
2023/10/27 01:58:11;;;;;;;2.00;1.70;;;;;;;12.06;nan;97322.78;4887162;29;20286;-79
2023/10/27 02:00:37;;;;;;;2.50;1.60;;;;;;;12.00;nan;97323.44;4885710;29;20215;-79
2023/10/27 02:03:02;;;;;;;2.13;1.70;;;;;;;11.97;nan;97313.25;4884089;29;20858;-79
2023/10/27 02:05:28;;;;;;;2.00;1.60;;;;;;;11.95;nan;97321.28;4883601;29;20206;-79
2023/10/27 02:07:53;;;;;;;2.60;2.10;;;;;;;11.93;nan;97325.88;4885066;29;20203;-79
2023/10/27 02:10:18;;;;;;;2.73;1.50;;;;;;;11.92;nan;97329.53;4885754;29;20242;-79
2023/10/27 02:12:45;;;;;;;6.23;1.80;;;;;;;11.92;nan;97324.25;4888688;29;20707;-79
2023/10/27 02:15:12;;;;;;;1.30;1.20;;;;;;;11.93;nan;97323.25;4884459;29;20217;-79
2023/10/27 02:17:39;;;;;;;8.25;1.80;;;;;;;11.95;nan;97316.03;4885052;29;20202;-79
2023/10/27 02:20:06;;;;;;;1.98;0.90;;;;;;;11.96;nan;97312.41;4882683;29;20204;-79
2023/10/27 02:22:32;;;;;;;1.10;1.00;;;;;;;11.96;nan;97307.16;4885181;29;20705;-79
2023/10/27 02:24:57;;;;;;;1.40;1.10;;;;;;;11.95;nan;97305.50;4879936;29;20538;-79
2023/10/27 02:27:23;;;;;;;1.27;1.07;;;;;;;11.96;nan;97315.03;4883636;29;20199;-80
2023/10/27 02:29:49;;;;;;;3.85;0.88;;;;;;;12.00;nan;97308.47;4885352;29;20622;-80
2023/10/27 02:32:14;;;;;;;0.80;0.70;;;;;;;12.03;nan;97307.34;4884915;29;20282;-79
2023/10/27 02:34:40;;;;;;;1.10;0.90;;;;;;;12.05;nan;97308.00;4887197;29;20274;-80
2023/10/27 02:37:05;;;;;;;1.77;1.00;;;;;;;12.05;nan;97314.09;4885626;29;20226;-79
2023/10/27 02:39:31;;;;;;;4.00;1.00;;;;;;;12.07;nan;97312.13;4878280;29;20198;-79
2023/10/27 02:41:56;;;;;;;2.17;1.00;;;;;;;12.07;nan;97306.84;4875539;29;20695;-79
2023/10/27 02:44:21;;;;;;;1.23;0.93;;;;;;;12.06;nan;97302.56;4875543;29;20199;-79
2023/10/27 02:46:47;;;;;;;1.00;0.70;;;;;;;12.07;nan;97304.22;4881569;29;20207;-79
2023/10/27 02:49:12;;;;;;;3.67;1.00;;;;;;;12.08;nan;97299.78;4888936;29;20232;-79
2023/10/27 02:51:39;;;;;;;0.95;0.80;;;;;;;12.08;nan;97295.34;4895243;29;20514;-78
2023/10/27 02:54:04;;;;;;;1.53;0.80;;;;;;;12.08;nan;97303.22;4903265;29;20341;-79
2023/10/27 02:56:29;;;;;;;3.63;0.87;;;;;;;12.08;nan;97297.97;4900629;29;20769;-79
2023/10/27 02:58:55;;;;;;;1.63;0.70;;;;;;;12.04;nan;97290.56;4893554;29;20226;-79
2023/10/27 03:01:20;;;;;;;1.20;0.70;;;;;;;12.03;nan;97291.56;4898802;29;20225;-79
2023/10/27 03:03:46;;;;;;;2.03;0.70;;;;;;;11.97;nan;97293.03;4904392;29;20225;-79
2023/10/27 03:06:12;;;;;;;2.20;1.30;;;;;;;11.96;nan;97291.34;4902092;29;20446;-79
2023/10/27 03:08:39;;;;;;;0.95;0.65;;;;;;;11.95;nan;97290.53;4903212;29;20199;-79
2023/10/27 03:11:05;;;;;;;2.38;2.17;;;;;;;11.97;nan;97290.41;4902389;29;20712;-78
2023/10/27 03:13:31;;;;;;;3.30;3.10;;;;;;;11.98;nan;97292.03;4905178;29;20211;-78
2023/10/27 03:15:58;;;;;;;1.35;1.00;;;;;;;11.97;nan;97292.22;4904851;29;20696;-79
2023/10/27 03:18:24;;;;;;;0.80;0.80;;;;;;;11.91;nan;97280.53;4901243;29;20228;-79
2023/10/27 03:21:00;;;;;;;2.30;1.30;;;;;;;11.89;nan;97279.88;4903652;29;20693;-78
2023/10/27 03:23:27;;;;;;;1.20;0.77;;;;;;;11.86;nan;97280.19;4883468;29;20540;-78
2023/10/27 03:25:53;;;;;;;1.30;0.90;;;;;;;11.87;nan;97281.81;4901299;29;20210;-78
2023/10/27 03:28:20;;;;;;;1.35;0.80;;;;;;;11.88;nan;97271.16;4899981;29;20326;-80
2023/10/27 03:30:48;;;;;;;3.85;0.88;;;;;;;11.87;nan;97269.50;4885186;29;20216;-79
2023/10/27 03:33:14;;;;;;;3.00;1.00;;;;;;;11.86;nan;97267.03;4904331;29;20198;-80
2023/10/27 03:35:42;;;;;;;1.50;1.10;;;;;;;11.84;nan;97267.16;4903097;29;20446;-79
2023/10/27 03:38:09;;;;;;;1.33;0.90;;;;;;;11.82;nan;97268.31;4902755;29;20966;-79
2023/10/27 03:40:35;;;;;;;1.33;1.13;;;;;;;11.77;nan;97265.34;4903180;29;20207;-78
2023/10/27 03:43:00;;;;;;;1.60;1.13;;;;;;;11.77;nan;97260.06;4900946;29;20743;-79
2023/10/27 03:45:25;;;;;;;4.20;1.00;;;;;;;11.78;nan;97274.91;4902703;29;21031;-79
2023/10/27 03:47:51;;;;;;;3.67;1.00;;;;;;;11.78;nan;97277.53;4903870;29;20217;-79
2023/10/27 03:50:16;;;;;;;1.23;1.03;;;;;;;11.78;nan;97270.44;4894676;29;20771;-79
2023/10/27 03:52:42;;;;;;;1.60;0.83;;;;;;;11.79;nan;97274.72;4898865;29;20210;-79
2023/10/27 03:55:11;;;;;;;0.90;0.80;;;;;;;11.79;nan;97284.41;4897753;29;20584;-79
2023/10/27 03:57:39;;;;;;;1.27;1.10;;;;;;;11.80;nan;97293.94;4899318;29;20506;-79
2023/10/27 04:00:07;;;;;;;2.47;0.70;;;;;;;11.82;nan;97302.50;4895843;29;20294;-79
2023/10/27 04:02:37;;;;;;;2.10;0.93;;;;;;;11.85;nan;97304.81;4899931;29;20237;-80
2023/10/27 04:05:06;;;;;;;1.03;0.70;;;;;;;11.86;nan;97295.97;4898807;29;20238;-79
2023/10/27 04:07:31;;;;;;;0.82;0.80;;;;;;;11.87;nan;97302.88;4897660;29;20195;-79
2023/10/27 04:09:57;;;;;;;1.83;1.00;;;;;;;11.90;nan;97319.16;4899595;29;21155;-78
2023/10/27 04:12:22;;;;;;;1.63;1.00;;;;;;;11.91;nan;97320.00;4898948;29;20294;-79
2023/10/27 04:14:48;;;;;;;1.10;1.00;;;;;;;11.92;nan;97326.88;4898929;29;20217;-78
2023/10/27 04:17:14;;;;;;;1.33;1.10;;;;;;;11.91;nan;97331.34;4899274;29;20203;-78
2023/10/27 04:19:41;;;;;;;1.47;0.97;;;;;;;11.95;nan;97330.00;4900452;29;21003;-79
2023/10/27 04:22:06;;;;;;;2.20;2.00;;;;;;;11.92;nan;97337.41;4901449;29;20529;-79
2023/10/27 04:24:32;;;;;;;2.13;1.93;;;;;;;11.93;nan;97349.56;4902501;29;20207;-78
2023/10/27 04:26:57;;;;;;;1.50;1.00;;;;;;;11.94;nan;97356.50;4901562;29;20904;-79
2023/10/27 04:29:22;;;;;;;1.63;1.20;;;;;;;11.96;nan;97359.75;4899838;29;20253;-78
2023/10/27 04:31:48;;;;;;;1.53;1.10;;;;;;;11.99;nan;97370.00;4901634;29;20211;-79
2023/10/27 04:34:14;;;;;;;1.40;1.30;;;;;;;12.03;nan;97376.56;4899763;29;20297;-78
2023/10/27 04:36:39;;;;;;;2.00;1.60;;;;;;;12.10;nan;97384.66;4901534;29;20218;-79
2023/10/27 04:39:05;;;;;;;1.03;0.70;;;;;;;12.17;nan;97389.06;4901060;29;20202;-78
2023/10/27 04:41:30;;;;;;;1.40;1.00;;;;;;;12.26;nan;97396.97;4900874;29;20210;-78
2023/10/27 04:43:56;;;;;;;1.10;0.90;;;;;;;12.32;nan;97406.88;4900327;29;20226;-79
2023/10/27 04:46:22;;;;;;;0.85;0.70;;;;;;;12.37;nan;97415.94;4901418;29;20202;-79
2023/10/27 04:48:48;;;;;;;0.90;0.80;;;;;;;12.41;nan;97405.91;4901229;29;20232;-79
2023/10/27 04:51:13;;;;;;;1.57;0.87;;;;;;;12.44;nan;97417.91;4903159;29;20497;-79
2023/10/27 04:53:38;;;;;;;1.13;0.80;;;;;;;12.43;nan;97422.38;4904366;29;20333;-80
2023/10/27 04:56:04;;;;;;;0.80;0.70;;;;;;;12.44;nan;97423.19;4904698;29;20310;-80
2023/10/27 04:58:30;;;;;;;2.43;1.40;;;;;;;12.43;nan;97427.63;4902832;29;20218;-79
2023/10/27 05:00:55;;;;;;;0.70;0.70;;;;;;;12.43;nan;97435.53;4902567;29;20923;-79
2023/10/27 05:03:20;;;;;;;1.47;1.00;;;;;;;12.43;nan;97440.78;4904162;29;20674;-80
2023/10/27 05:05:46;;;;;;;1.00;0.90;;;;;;;12.43;nan;97437.34;4904987;29;20202;-81
2023/10/27 05:08:11;;;;;;;1.13;1.03;;;;;;;12.43;nan;97451.31;4910634;29;20714;-80
2023/10/27 05:10:38;;;;;;;1.83;0.80;;;;;;;12.43;nan;97453.97;4911038;29;20357;-80
2023/10/27 05:13:04;;;;;;;1.70;0.75;;;;;;;12.44;nan;97460.84;4911144;29;20724;-81
2023/10/27 05:15:29;;;;;;;2.00;0.73;;;;;;;12.46;nan;97468.59;4905813;29;20207;-81
2023/10/27 05:17:55;;;;;;;0.80;0.70;;;;;;;12.48;nan;97464.00;4907698;29;20650;-81
2023/10/27 05:20:20;;;;;;;0.90;0.80;;;;;;;12.47;nan;97465.78;4907643;29;20565;-81
2023/10/27 05:22:46;;;;;;;1.10;0.93;;;;;;;12.47;nan;97468.44;4909640;29;20214;-80
2023/10/27 05:25:11;;;;;;;1.23;0.80;;;;;;;12.48;nan;97470.09;4908992;29;20202;-80
2023/10/27 05:27:37;;;;;;;1.83;1.00;;;;;;;12.50;nan;97465.50;4905800;29;20305;-81
2023/10/27 05:30:02;;;;;;;1.43;0.83;;;;;;;12.50;nan;97470.75;4906578;29;20349;-80
2023/10/27 05:32:29;;;;;;;2.30;0.90;;;;;;;12.50;nan;97470.75;4902215;29;20229;-80
2023/10/27 05:34:56;;;;;;;1.33;1.00;;;;;;;12.52;nan;97476.66;4908057;29;20468;-81
2023/10/27 05:37:21;;;;;;;0.93;0.82;;;;;;;12.53;nan;97470.44;4908211;29;20199;-81
2023/10/27 05:39:47;;;;;;;2.50;0.97;;;;;;;12.52;nan;97481.94;4906471;29;20293;-81
2023/10/27 05:42:14;;;;;;;1.30;1.20;;;;;;;12.54;nan;97484.41;4904694;29;20198;-82
2023/10/27 05:44:41;;;;;;;1.80;1.00;;;;;;;12.53;nan;97494.13;4906849;29;20486;-80
2023/10/27 05:47:07;;;;;;;0.98;0.80;;;;;;;12.55;nan;97488.69;4904188;29;20654;-81
2023/10/27 05:49:32;;;;;;;1.02;0.85;;;;;;;12.53;nan;97493.28;4905070;29;20742;-80
2023/10/27 05:52:02;;;;;;;1.43;0.90;;;;;;;12.52;nan;97497.75;4901900;29;20241;-80
2023/10/27 05:54:30;;;;;;;1.30;1.02;;;;;;;12.55;nan;97500.03;4903279;29;20202;-80
2023/10/27 05:56:56;;;;;;;0.90;0.70;;;;;;;12.56;nan;97499.06;4905750;29;20341;-81
2023/10/27 05:59:21;;;;;;;1.10;0.73;;;;;;;12.55;nan;97501.84;4899337;29;20470;-80
2023/10/27 06:01:48;;;;;;;4.53;1.30;;;;;;;12.56;nan;97506.16;4903424;29;20198;-80
2023/10/27 06:04:17;;;;;;;0.75;0.70;;;;;;;12.57;nan;97503.34;4902413;29;20222;-80
2023/10/27 06:06:42;;;;;;;1.00;0.80;;;;;;;12.57;nan;97511.25;4900882;29;20450;-80
2023/10/27 06:09:08;;;;;;;0.93;0.87;;;;;;;12.55;nan;97513.22;4902491;29;20205;-80
2023/10/27 06:11:33;;;;;;;0.87;0.70;;;;;;;12.57;nan;97510.44;4902105;29;20225;-81
2023/10/27 06:13:59;;;;;;;1.17;0.97;;;;;;;12.57;nan;97516.50;4902289;29;20230;-81
2023/10/27 06:16:24;;;;;;;1.40;0.73;;;;;;;12.62;nan;97523.94;4901938;29;20289;-81
2023/10/27 06:18:53;;;;;;;1.00;0.70;;;;;;;12.62;nan;97530.03;4903633;29;20797;-81
2023/10/27 06:21:18;;;;;;;2.25;0.88;;;;;;;12.61;nan;97533.66;4902827;29;20214;-81
2023/10/27 06:23:44;;;;;;;1.00;0.70;;;;;;;12.62;nan;97537.94;4901707;29;20656;-80
2023/10/27 06:26:10;;;;;;;0.90;0.70;;;;;;;12.67;nan;97539.28;4902542;29;20202;-81
2023/10/27 06:28:35;;;;;;;1.07;0.80;;;;;;;12.65;nan;97544.69;4901640;29;20463;-81
2023/10/27 06:31:02;;;;;;;2.70;1.00;;;;;;;12.66;nan;97545.50;4899865;29;20210;-81
2023/10/27 06:33:28;;;;;;;2.33;0.98;;;;;;;12.68;nan;97557.53;4889817;29;20207;-80
2023/10/27 06:35:55;;;;;;;1.23;0.70;;;;;;;12.69;nan;97558.34;4899586;29;20534;-81
2023/10/27 06:38:20;;;;;;;2.45;1.02;;;;;;;12.67;nan;97558.53;4904975;29;20856;-81
2023/10/27 06:40:47;;;;;;;7.70;2.97;;;;;;;12.67;nan;97570.88;4905879;29;20214;-80
2023/10/27 06:43:12;;;;;;;0.80;0.80;;;;;;;12.67;nan;97573.50;4905624;29;20213;-80
2023/10/27 06:45:38;;;;;;;0.70;0.70;;;;;;;12.70;nan;97575.81;4904769;29;20573;-80
2023/10/27 06:48:03;;;;;;;2.10;0.90;;;;;;;12.70;nan;97581.09;4905139;29;20206;-80
2023/10/27 06:50:29;;;;;;;0.90;0.70;;;;;;;12.72;nan;97587.84;4902065;29;20997;-81
2023/10/27 06:52:54;;;;;;;0.87;0.80;;;;;;;12.76;nan;97594.44;4902266;29;20208;-80
2023/10/27 06:55:20;;;;;;;4.20;1.00;;;;;;;12.77;nan;97579.44;4904707;29;20202;-81
2023/10/27 06:57:45;;;;;;;1.40;0.93;;;;;;;12.77;nan;97588.19;4904525;29;20626;-81
2023/10/27 07:00:11;;;;;;;1.33;0.80;;;;;;;12.76;nan;97588.34;4903714;29;20186;-81
2023/10/27 07:02:36;;;;;;;1.43;0.60;;;;;;;12.74;nan;97601.66;4903535;29;20226;-82
2023/10/27 07:05:05;;;;;;;1.40;0.90;;;;;;;12.71;nan;97601.97;4905433;29;20702;-82
2023/10/27 07:07:31;;;;;;;3.92;0.93;;;;;;;12.71;nan;97632.78;4904996;29;20206;-82
2023/10/27 07:09:56;;;;;;;1.40;1.20;;;;;;;12.70;nan;97621.41;4904792;29;20202;-81
2023/10/27 07:12:21;;;;;;;1.77;0.77;;;;;;;12.73;nan;97628.19;4903190;29;20215;-81
2023/10/27 07:14:47;;;;;;;1.10;1.00;;;;;;;12.71;nan;97624.88;4903660;29;20296;-81
2023/10/27 07:17:15;;;;;;;1.50;0.80;;;;;;;12.71;nan;97638.84;4901980;29;20245;-81
2023/10/27 07:19:41;;;;;;;1.83;1.60;;;;;;;12.72;nan;97644.94;4902227;29;20194;-82
2023/10/27 07:22:06;;;;;;;1.57;0.83;;;;;;;12.73;nan;97643.97;4903147;29;20369;-79
2023/10/27 07:24:32;;;;;;;1.43;1.00;;;;;;;12.74;nan;97646.44;4898734;29;20221;-80
2023/10/27 07:26:58;;;;;;;1.23;0.90;;;;;;;12.77;nan;97640.88;4898155;29;20228;-80
2023/10/27 07:29:24;;;;;;;1.00;0.77;;;;;;;12.78;nan;97655.69;4898400;29;20641;-80
2023/10/27 07:31:49;;;;;;;1.70;1.10;;;;;;;12.77;nan;97651.41;4897229;29;20232;-79
2023/10/27 07:34:15;;;;;;;1.40;1.00;;;;;;;12.78;nan;97653.06;4899697;29;20205;-81
2023/10/27 07:36:40;;;;;;;1.20;1.10;;;;;;;12.78;nan;97653.06;4901226;29;20513;-81
2023/10/27 07:39:06;;;;;;;2.33;0.83;;;;;;;12.78;nan;97670.69;4886253;29;20210;-81
2023/10/27 07:41:34;;;;;;;4.20;1.17;;;;;;;12.77;nan;97659.31;4903227;29;20480;-81
2023/10/27 07:44:00;;;;;;;2.10;0.90;;;;;;;12.75;nan;97663.91;4901740;29;20222;-81
2023/10/27 07:46:26;;;;;;;2.45;1.17;;;;;;;12.74;nan;97667.50;4905352;29;20816;-81
2023/10/27 07:48:51;;;;;;;2.60;1.50;;;;;;;12.77;nan;97679.53;4907242;29;20483;-81
2023/10/27 07:51:17;;;;;;;2.23;1.37;;;;;;;12.80;nan;97674.81;4909169;29;20220;-81
2023/10/27 07:53:42;;;;;;;2.07;0.87;;;;;;;12.82;nan;97669.34;4906405;29;20269;-80
2023/10/27 07:56:08;;;;;;;1.00;0.90;;;;;;;12.91;nan;97671.06;4904766;29;20247;-80
2023/10/27 07:58:34;;;;;;;3.80;1.20;;;;;;;12.98;nan;97679.13;4909181;29;20479;-81
2023/10/27 08:00:59;;;;;;;1.90;1.00;;;;;;;13.08;nan;97682.47;4907730;29;20246;-81
2023/10/27 08:03:24;;;;;;;3.10;1.30;;;;;;;13.22;nan;97678.38;4910367;29;20771;-81
2023/10/27 08:05:50;;;;;;;1.97;1.00;;;;;;;13.40;nan;97679.09;4905441;29;20477;-81
2023/10/27 08:08:16;;;;;;;2.20;0.90;;;;;;;13.54;nan;97677.63;4909651;29;20740;-81
2023/10/27 08:10:46;;;;;;;1.65;1.00;;;;;;;13.64;nan;97682.75;4908348;29;20738;-81
2023/10/27 08:13:12;;;;;;;1.65;1.00;;;;;;;13.70;nan;97676.81;4908887;29;20246;-81
2023/10/27 08:15:37;;;;;;;5.23;1.20;;;;;;;13.71;nan;97668.72;4913245;29;20210;-81
2023/10/27 08:18:03;;;;;;;2.43;1.10;;;;;;;13.78;nan;97681.28;4915935;29;20212;-81
2023/10/27 08:20:29;;;;;;;1.88;1.67;;;;;;;13.99;nan;97686.03;4914009;29;20207;-80
2023/10/27 08:22:54;;;;;;;6.33;1.70;;;;;;;14.29;nan;97681.88;4907990;29;20225;-81
2023/10/27 08:25:22;;;;;;;4.50;1.30;;;;;;;14.99;nan;97689.13;4906133;29;20202;-81
2023/10/27 08:27:48;;;;;;;2.10;0.98;;;;;;;15.98;nan;97684.81;4908418;29;20202;-81
2023/10/27 08:30:14;;;;;;;4.38;1.23;;;;;;;17.06;nan;97678.19;4907078;29;20441;-81
2023/10/27 08:32:40;;;;;;;1.42;1.08;;;;;;;18.08;nan;97666.56;4907429;29;20199;-80
2023/10/27 08:35:06;;;;;;;5.50;1.20;;;;;;;18.73;nan;97662.66;4911501;29;20203;-80
2023/10/27 08:37:31;;;;;;;1.80;0.80;;;;;;;18.78;nan;97665.59;4906156;29;20206;-80
2023/10/27 08:39:57;;;;;;;3.33;1.30;;;;;;;18.42;nan;97664.97;4908042;29;20607;-80
2023/10/27 08:42:23;;;;;;;2.70;1.10;;;;;;;17.95;nan;97667.28;4911420;29;20214;-81
2023/10/27 08:44:48;;;;;;;1.43;1.10;;;;;;;17.37;nan;97679.78;4906741;29;20203;-80
2023/10/27 08:47:14;;;;;;;3.17;1.10;;;;;;;16.82;nan;97684.63;4909288;29;20733;-80
2023/10/27 08:49:39;;;;;;;1.13;0.80;;;;;;;16.40;nan;97687.91;4905622;29;20306;-81
2023/10/27 08:52:08;;;;;;;3.70;1.10;;;;;;;16.02;nan;97680.81;4904896;29;20237;-80
2023/10/27 08:54:38;;;;;;;0.80;0.80;;;;;;;16.08;nan;97693.34;4909326;29;20381;-80
2023/10/27 08:57:05;;;;;;;2.22;1.02;;;;;;;16.14;nan;97700.56;4909669;29;20689;-79
2023/10/27 08:59:30;;;;;;;4.20;1.80;;;;;;;16.21;nan;97705.16;4904523;29;20199;-80
2023/10/27 09:01:55;;;;;;;3.50;1.10;;;;;;;16.07;nan;97699.66;4907460;29;20257;-80
2023/10/27 09:04:23;;;;;;;2.75;1.20;;;;;;;15.78;nan;97705.69;4906324;29;20458;-80
2023/10/27 09:06:49;;;;;;;3.05;1.00;;;;;;;15.56;nan;97709.13;4906533;29;20203;-81
2023/10/27 09:09:14;;;;;;;2.40;1.07;;;;;;;15.32;nan;97710.91;4903206;29;20210;-81
2023/10/27 09:11:45;;;;;;;1.30;0.90;;;;;;;15.16;nan;97714.47;4906363;29;20285;-80
2023/10/27 09:14:22;;;;;;;4.20;0.80;;;;;;;15.06;nan;97719.13;4903342;29;20210;-80
2023/10/27 09:16:48;;;;;;;3.28;0.88;;;;;;;15.00;nan;97727.75;4890910;29;20296;-79
2023/10/27 09:19:20;;;;;;;4.05;1.25;;;;;;;14.92;nan;97735.72;4902153;29;20332;-79
2023/10/27 09:21:46;;;;;;;1.48;1.00;;;;;;;14.78;nan;97737.25;4900841;29;20218;-80
2023/10/27 09:24:21;;;;;;;2.53;1.37;;;;;;;14.64;nan;97733.50;4906428;29;20210;-80
2023/10/27 09:26:47;;;;;;;4.78;1.30;;;;;;;14.54;nan;97738.97;4905014;29;20663;-79
2023/10/27 09:29:12;;;;;;;1.60;0.73;;;;;;;14.44;nan;97738.28;4906374;29;20686;-80
2023/10/27 09:31:38;;;;;;;2.20;1.20;;;;;;;14.36;nan;97733.84;4901200;29;20241;-79
2023/10/27 09:34:31;;;;;;;1.67;0.90;;;;;;;14.32;nan;97740.47;4903591;29;20198;-80
2023/10/27 09:36:59;;;;;;;2.20;0.90;;;;;;;14.34;nan;97735.84;4902474;29;20481;-80
2023/10/27 09:39:25;;;;;;;0.80;0.80;;;;;;;14.41;nan;97749.19;4904392;29;20207;-80
2023/10/27 09:42:06;;;;;;;1.30;1.10;;;;;;;14.47;nan;97748.53;4899414;29;20586;-80
2023/10/27 09:44:55;;;;;;;3.22;1.40;;;;;;;14.51;nan;97747.19;4902916;29;20228;-80
2023/10/27 09:47:33;;;;;;;1.58;0.90;;;;;;;14.60;nan;97748.03;4902685;29;20503;-81
2023/10/27 09:50:06;;;;;;;3.70;0.98;;;;;;;14.66;nan;97751.81;4900814;29;20818;-80
2023/10/27 09:52:33;;;;;;;5.25;1.10;;;;;;;14.73;nan;97748.34;4898272;29;20721;-80
2023/10/27 09:55:01;;;;;;;2.95;1.10;;;;;;;14.83;nan;97750.78;4905041;29;20217;-79
2023/10/27 09:57:28;;;;;;;2.38;0.93;;;;;;;14.93;nan;97743.50;4902534;29;20206;-79
2023/10/27 09:59:55;;;;;;;2.75;1.83;;;;;;;15.02;nan;97741.66;4900977;29;20670;-80
2023/10/27 10:02:25;;;;;;;1.67;1.00;;;;;;;15.06;nan;97756.16;4902974;29;20470;-80
2023/10/27 10:04:50;;;;;;;2.53;1.05;;;;;;;15.11;nan;97756.47;4902794;29;20541;-80
2023/10/27 10:07:33;;;;;;;1.93;1.00;;;;;;;15.12;nan;97767.88;4905317;29;20233;-80
2023/10/27 10:10:31;;;;;;;1.25;0.82;;;;;;;15.10;nan;97775.97;4905940;29;20224;-80
2023/10/27 10:13:03;;;;;;;1.48;0.95;;;;;;;15.04;nan;97774.00;4902198;29;20214;-80
2023/10/27 10:15:43;;;;;;;1.27;0.82;;;;;;;15.00;nan;97770.88;4899427;29;20301;-80
2023/10/27 10:18:34;;;;;;;2.92;1.10;;;;;;;14.92;nan;97780.66;4905033;29;20202;-79
2023/10/27 10:21:00;;;;;;;1.55;1.30;;;;;;;14.81;nan;97764.16;4901158;29;20696;-80
2023/10/27 10:23:38;;;;;;;1.55;0.80;;;;;;;14.72;nan;97773.13;4902446;29;20321;-79
2023/10/27 10:26:04;;;;;;;1.35;0.85;;;;;;;14.68;nan;97776.25;4901833;29;20206;-80
2023/10/27 10:28:33;;;;;;;2.45;1.25;;;;;;;14.68;nan;97770.97;4900396;29;20206;-80
2023/10/27 10:31:07;;;;;;;4.13;1.45;;;;;;;14.72;nan;97777.59;4907828;29;20304;-80
2023/10/27 10:33:34;;;;;;;1.70;1.00;;;;;;;14.81;nan;97776.56;4906650;29;20213;-80
2023/10/27 10:36:15;;;;;;;1.98;1.00;;;;;;;14.89;nan;97773.09;4897148;29;20194;-80
2023/10/27 10:38:55;;;;;;;1.92;0.90;;;;;;;14.93;nan;97769.94;4900833;29;20480;-81
2023/10/27 10:41:21;;;;;;;0.93;0.85;;;;;;;14.94;nan;97770.75;4899781;29;20217;-81
2023/10/27 10:44:13;;;;;;;1.05;0.95;;;;;;;14.88;nan;97772.25;4901214;29;20225;-81
2023/10/27 10:46:38;;;;;;;0.98;0.80;;;;;;;14.79;nan;97766.16;4900936;29;20202;-81
2023/10/27 10:49:04;;;;;;;2.43;0.90;;;;;;;14.73;nan;97774.75;4904886;29;20218;-80
2023/10/27 10:51:30;;;;;;;1.57;1.43;;;;;;;14.65;nan;97777.44;4902913;29;20214;-81
2023/10/27 10:53:56;;;;;;;2.20;0.90;;;;;;;14.60;nan;97775.28;4901229;29;20439;-80
2023/10/27 10:56:24;;;;;;;3.37;0.90;;;;;;;14.51;nan;97780.72;4902193;29;20218;-81
2023/10/27 10:58:50;;;;;;;3.38;1.50;;;;;;;14.44;nan;97775.28;4900421;29;20974;-80
2023/10/27 11:01:22;;;;;;;1.10;0.83;;;;;;;14.35;nan;97777.09;4898211;29;20217;-80
2023/10/27 11:03:53;;;;;;;4.32;1.33;;;;;;;14.28;nan;97776.09;4898631;29;20186;-81
2023/10/27 11:06:26;;;;;;;2.15;1.30;;;;;;;14.23;nan;97759.97;4897742;29;20210;-80
2023/10/27 11:08:53;;;;;;;4.03;1.45;;;;;;;14.25;nan;97763.25;4901211;29;20207;-80
2023/10/27 11:11:19;;;;;;;2.72;1.27;;;;;;;14.34;nan;97762.25;4901114;29;20210;-80
2023/10/27 11:13:45;;;;;;;1.83;1.35;;;;;;;14.49;nan;97758.94;4903198;29;20851;-80
2023/10/27 11:16:18;;;;;;;1.30;1.00;;;;;;;14.64;nan;97759.13;4900736;29;20202;-80
2023/10/27 11:18:45;;;;;;;2.05;1.20;;;;;;;14.71;nan;97765.34;4900563;29;20206;-80
2023/10/27 11:21:21;;;;;;;1.75;1.20;;;;;;;14.74;nan;97760.56;4904438;29;20217;-81
2023/10/27 11:23:48;;;;;;;2.50;1.10;;;;;;;14.77;nan;97775.25;4909852;29;20780;-80
2023/10/27 11:26:17;;;;;;;3.15;1.25;;;;;;;14.81;nan;97758.88;4908050;29;20206;-80
2023/10/27 11:28:45;;;;;;;2.65;1.00;;;;;;;14.90;nan;97754.38;4906752;29;21057;-82
2023/10/27 11:31:12;;;;;;;5.85;1.17;;;;;;;15.06;nan;97750.88;4903753;29;20453;-80
2023/10/27 11:34:00;;;;;;;2.50;1.23;;;;;;;15.24;nan;97755.91;4908601;29;20799;-80
2023/10/27 11:36:30;;;;;;;2.25;1.75;;;;;;;15.37;nan;97756.19;4904026;29;20530;-80
2023/10/27 11:38:56;;;;;;;3.55;1.00;;;;;;;15.47;nan;97748.88;4905687;29;20449;-81
2023/10/27 11:41:22;;;;;;;5.13;1.00;;;;;;;15.58;nan;97747.66;4907836;29;20237;-81
2023/10/27 11:43:47;;;;;;;4.13;1.20;;;;;;;15.70;nan;97746.25;4906619;29;20210;-81
2023/10/27 11:46:16;;;;;;;7.73;1.40;;;;;;;15.80;nan;97739.91;4902359;29;21349;-81
2023/10/27 11:48:42;;;;;;;1.23;1.05;;;;;;;15.89;nan;97742.31;4901235;29;20728;-81
2023/10/27 11:51:09;;;;;;;2.53;1.10;;;;;;;15.96;nan;97744.25;4909545;29;20222;-80